Terminal Aerodrome Forecast
Issued by NWS

Home | Current Version | Previous Version | Text Only | Print | Product List | Glossary On
Versions: 1 2 3 4 5 6 7 8 9 10 11 12 13 14 15
000
FTUS45 KBOI 180251 AAA
TAFTWF
TAF AMD
KTWF 180251Z 1803/1824 04006KT P6SM OVC120
     FM180400 20012G20KT P6SM SCT080 OVC100
     FM180600 27022G32KT P6SM VCSH SCT050 BKN070 OVC100
     FM181500 26016G26KT P6SM SCT150=

USA.gov is the U.S. government's official web portal to all federal, state and local government web resources and services.